OMDB/DXB METAR and TAF weather

Enter ICAO airport designator
Station Type Date Time Source
OMDB METAR 2021/09/28 16:00 UTC NOAA

OMDB 281600Z 34007KT 320V020 CAVOK 34/25 Q1004 NOSIG


Station Type Date Time Source
OMDB Decoded METAR 2021/09/28 16:00 UTC NOAA

Dubai International Airport, United Arab Emirates (OMDB) 25-15N 055-20E 5M
Sep 28, 2021 - 12:00 PM EDT / 2021.09.28 1600 UTC
Wind: from the NNW (340 degrees) at 8 MPH (7 KT) (direction variable):0
Visibility: greater than 7 mile(s):0
Temperature: 93 F (34 C)
Heat index: 106.7 F (41.5 C):1
Dew Point: 77 F (25 C)
Relative Humidity: 59%
Pressure (altimeter): 29.65 in. Hg (1004 hPa)
ob: OMDB 281600Z 34007KT 320V020 CAVOK 34/25 Q1004 NOSIG
cycle: 16

Station Type Date Time Source
OMDB TAF 2021/09/28 12:03 UTC NOAA

TAF OMDB 281100Z 2812/2918 33012KT 8000 NSC PROB30
TEMPO 2812/2815 14020G30KT 3000 BLDU FEW040TCU
BECMG 2817/2819 04005KT
BECMG 2907/2909 32012KT
BECMG 2916/2918 08005KT

Example: see airport list